createdAt,value
2018-10-12T00:01:30.510Z,101481.47
2018-10-12T00:03:59.014Z,101485.03
2018-10-12T00:06:27.532Z,101486.74
2018-10-12T00:08:56.063Z,101484.02
2018-10-12T00:11:24.570Z,101481.61
2018-10-12T00:13:53.104Z,101483.65
2018-10-12T00:16:21.607Z,101484.00
2018-10-12T00:18:50.139Z,101483.00
2018-10-12T00:21:18.657Z,101482.16
2018-10-12T00:23:47.189Z,101485.91
2018-10-12T00:26:15.710Z,101487.26
2018-10-12T00:28:44.244Z,101490.49
2018-10-12T00:31:12.757Z,101483.52
2018-10-12T00:33:41.305Z,101487.27
2018-10-12T00:36:09.834Z,101489.80
2018-10-12T00:38:38.386Z,101486.91
2018-10-12T00:41:07.371Z,101502.55
2018-10-12T00:43:35.899Z,101503.41
2018-10-12T00:46:04.422Z,101502.70
2018-10-12T00:48:32.959Z,101508.51
2018-10-12T00:51:01.459Z,101503.92
2018-10-12T00:53:29.982Z,101505.09
2018-10-12T00:55:58.485Z,101500.32
2018-10-12T00:58:27.022Z,101498.96
2018-10-12T01:00:55.525Z,101500.84
2018-10-12T01:03:24.061Z,101503.73
2018-10-12T01:05:52.603Z,101513.25
2018-10-12T01:08:21.174Z,101517.00
2018-10-12T01:10:49.684Z,101514.28
2018-10-12T01:13:18.246Z,101525.48
2018-10-12T01:15:46.756Z,101513.91
2018-10-12T01:18:15.297Z,101518.69
2018-10-12T01:20:43.838Z,101527.84
2018-10-12T01:23:12.410Z,101520.05
2018-10-12T01:25:40.934Z,101525.48
2018-10-12T01:28:09.477Z,101524.27
2018-10-12T01:30:38.023Z,101525.80
2018-10-12T01:33:07.165Z,101529.00
2018-10-12T01:35:36.541Z,101527.83
2018-10-12T01:38:05.100Z,101530.02
2018-10-12T01:40:33.850Z,101538.69
2018-10-12T01:43:02.777Z,101540.03
2018-10-12T01:45:31.565Z,101540.50
2018-10-12T01:48:00.127Z,101535.42
2018-10-12T01:50:28.666Z,101545.09
2018-10-12T01:52:57.178Z,101542.75
2018-10-12T01:55:25.752Z,101546.65
2018-10-12T01:57:54.270Z,101550.53
2018-10-12T02:00:22.863Z,101551.73
2018-10-12T02:02:51.382Z,101559.69
2018-10-12T02:05:19.925Z,101557.81
2018-10-12T02:07:48.425Z,101552.67
2018-10-12T02:10:24.027Z,101541.78
2018-10-12T02:12:52.535Z,101545.48
2018-10-12T02:15:21.114Z,101547.58
2018-10-12T02:17:49.640Z,101554.57
2018-10-12T02:20:18.193Z,101557.48
2018-10-12T02:22:46.693Z,101560.67
2018-10-12T02:25:15.222Z,101559.14
2018-10-12T02:27:43.756Z,101550.28
2018-10-12T02:30:12.295Z,101547.88
2018-10-12T02:32:40.812Z,101552.79
2018-10-12T02:35:09.403Z,101552.79
2018-10-12T02:37:37.938Z,101555.49
2018-10-12T02:40:06.505Z,101562.28
2018-10-12T02:42:35.018Z,101567.52
2018-10-12T02:45:03.580Z,101566.14
2018-10-12T02:47:32.082Z,101574.61
2018-10-12T02:50:00.621Z,101582.59
2018-10-12T02:52:29.126Z,101580.22
2018-10-12T02:54:57.665Z,101578.22
2018-10-12T02:57:26.169Z,101573.98
2018-10-12T02:59:54.708Z,101575.22
2018-10-12T03:02:23.217Z,101578.27
2018-10-12T03:04:51.774Z,101572.84
2018-10-12T03:07:20.284Z,101580.98
2018-10-12T03:09:48.845Z,101579.28
2018-10-12T03:12:17.368Z,101587.56
2018-10-12T03:14:45.918Z,101574.84
2018-10-12T03:17:14.443Z,101574.70
2018-10-12T03:19:43.025Z,101575.05
2018-10-12T03:22:11.897Z,101579.98
2018-10-12T03:24:40.427Z,101584.00
2018-10-12T03:27:08.982Z,101585.86
2018-10-12T03:29:37.538Z,101580.55
2018-10-12T03:32:06.294Z,101584.95
2018-10-12T03:34:34.981Z,101586.48
2018-10-12T03:37:03.540Z,101590.72
2018-10-12T03:39:32.094Z,101597.69
2018-10-12T03:42:00.638Z,101599.75
2018-10-12T03:44:29.189Z,101597.23
2018-10-12T03:46:57.735Z,101604.17
2018-10-12T03:49:26.306Z,101608.12
2018-10-12T03:51:54.858Z,101593.20
2018-10-12T03:54:23.414Z,101594.39
2018-10-12T03:56:51.925Z,101598.30
2018-10-12T03:59:20.461Z,101603.41
2018-10-12T04:01:48.969Z,101613.22
2018-10-12T04:04:17.503Z,101623.67
2018-10-12T04:06:46.017Z,101628.38
2018-10-12T04:09:14.565Z,101638.76
2018-10-12T04:11:43.079Z,101637.42
2018-10-12T04:14:11.618Z,101642.05
2018-10-12T04:16:40.122Z,101645.63
2018-10-12T04:19:09.018Z,101646.28
2018-10-12T04:21:37.526Z,101649.34
2018-10-12T04:24:06.047Z,101657.10
2018-10-12T04:26:34.587Z,101668.50
2018-10-12T04:29:03.093Z,101663.91
2018-10-12T04:31:31.626Z,101651.48
2018-10-12T04:34:00.159Z,101661.13
2018-10-12T04:36:28.733Z,101661.36
2018-10-12T04:39:08.501Z,101649.94
2018-10-12T04:41:37.057Z,101652.52
2018-10-12T04:44:05.569Z,101648.27
2018-10-12T04:46:43.547Z,101642.31
2018-10-12T04:49:13.864Z,101637.27
2018-10-12T04:51:56.919Z,101646.73
2018-10-12T04:54:25.967Z,101662.22
2018-10-12T04:56:54.527Z,101662.51
2018-10-12T04:59:23.095Z,101665.40
2018-10-12T05:01:51.693Z,101664.30
2018-10-12T05:04:20.340Z,101662.72
2018-10-12T05:06:48.911Z,101667.78
2018-10-12T05:09:17.437Z,101675.27
2018-10-12T05:11:46.032Z,101666.28
2018-10-12T05:14:14.569Z,101673.63
2018-10-12T05:16:43.114Z,101671.77
2018-10-12T05:19:11.633Z,101670.06
2018-10-12T05:21:40.395Z,101667.27
2018-10-12T05:24:08.938Z,101670.25
2018-10-12T05:26:37.501Z,101683.67
2018-10-12T05:29:06.125Z,101669.77
2018-10-12T05:31:34.670Z,101674.97
2018-10-12T05:34:03.238Z,101677.66
2018-10-12T05:36:31.760Z,101680.36
2018-10-12T05:39:00.294Z,101676.59
2018-10-12T05:41:28.806Z,101669.78
2018-10-12T05:43:57.335Z,101664.98
2018-10-12T05:46:25.853Z,101671.96
2018-10-12T05:49:05.542Z,101677.98
2018-10-12T05:51:34.080Z,101684.21
2018-10-12T05:54:02.642Z,101687.66
2018-10-12T05:56:33.134Z,101708.41
2018-10-12T05:59:01.871Z,101731.71
2018-10-12T06:01:30.534Z,101740.14
2018-10-12T06:03:59.282Z,101753.24
2018-10-12T06:06:28.065Z,101747.82
2018-10-12T06:08:56.606Z,101743.88
2018-10-12T06:11:25.189Z,101736.30
2018-10-12T06:13:53.826Z,101736.16
2018-10-12T06:16:22.698Z,101732.13
2018-10-12T06:18:51.386Z,101734.11
2018-10-12T06:21:19.898Z,101747.12
2018-10-12T06:23:48.429Z,101744.83
2018-10-12T06:26:16.963Z,101744.48
2018-10-12T06:28:45.509Z,101750.08
2018-10-12T06:31:14.017Z,101750.91
2018-10-12T06:33:42.523Z,101758.20
2018-10-12T06:36:11.086Z,101776.72
2018-10-12T06:38:39.681Z,101786.70
2018-10-12T06:41:08.276Z,101787.12
2018-10-12T06:43:36.781Z,101786.64
2018-10-12T06:46:05.345Z,101784.45
2018-10-12T06:48:33.879Z,101783.72
2018-10-12T06:51:02.428Z,101784.89
2018-10-12T06:53:30.934Z,101784.94
2018-10-12T06:55:59.472Z,101795.63
2018-10-12T06:58:27.995Z,101804.01
2018-10-12T07:00:56.547Z,101800.07
2018-10-12T07:03:25.711Z,101803.65
2018-10-12T07:05:53.789Z,101812.00
2018-10-12T07:08:22.315Z,101802.09
2018-10-12T07:10:50.866Z,101805.23
2018-10-12T07:13:19.385Z,101806.77
2018-10-12T07:15:47.924Z,101807.61
2018-10-12T07:18:16.437Z,101816.75
2018-10-12T07:20:44.970Z,101812.97
2018-10-12T07:23:13.609Z,101813.75
2018-10-12T07:25:42.199Z,101812.98
2018-10-12T07:28:10.686Z,101825.70
2018-10-12T07:30:39.226Z,101834.26
2018-10-12T07:33:07.748Z,101840.66
2018-10-12T07:35:36.301Z,101821.30
2018-10-12T07:38:04.817Z,101844.50
2018-10-12T07:40:33.360Z,101840.64
2018-10-12T07:43:01.878Z,101843.34
2018-10-12T07:45:30.373Z,101849.80
2018-10-12T07:47:58.903Z,101857.24
2018-10-12T07:50:27.499Z,101865.65
2018-10-12T07:52:56.031Z,101866.86
2018-10-12T07:55:24.554Z,101858.23
2018-10-12T07:57:53.097Z,101854.74
2018-10-12T08:00:21.736Z,101865.69
2018-10-12T08:02:50.176Z,101865.38
2018-10-12T08:05:18.682Z,101853.73
2018-10-12T08:07:47.230Z,101856.08
2018-10-12T08:10:15.743Z,101859.46
2018-10-12T08:12:44.274Z,101858.70
2018-10-12T08:15:12.796Z,101867.27
2018-10-12T08:17:41.383Z,101869.75
2018-10-12T08:20:10.354Z,101869.62
2018-10-12T08:22:38.879Z,101874.55
2018-10-12T08:25:07.429Z,101874.96
2018-10-12T08:27:35.985Z,101881.59
2018-10-12T08:30:04.553Z,101880.51
2018-10-12T08:32:33.121Z,101886.39
2018-10-12T08:35:01.644Z,101888.44
2018-10-12T08:37:30.165Z,101888.08
2018-10-12T08:39:58.671Z,101885.86
2018-10-12T08:42:27.231Z,101875.72
2018-10-12T08:44:55.753Z,101870.06
2018-10-12T08:47:24.306Z,101873.62
2018-10-12T08:49:52.821Z,101879.73
2018-10-12T08:52:21.397Z,101882.82
2018-10-12T08:54:49.918Z,101883.46
2018-10-12T08:57:18.438Z,101884.67
2018-10-12T08:59:46.983Z,101881.61
2018-10-12T09:02:15.502Z,101884.33
2018-10-12T09:04:44.043Z,101889.56
2018-10-12T09:07:12.547Z,101899.70
2018-10-12T09:09:41.082Z,101895.41
2018-10-12T09:12:09.631Z,101896.16
2018-10-12T09:14:38.175Z,101889.68
2018-10-12T09:17:06.990Z,101894.67
2018-10-12T09:19:35.540Z,101893.28
2018-10-12T09:22:04.078Z,101887.57
2018-10-12T09:24:32.706Z,101892.01
2018-10-12T09:27:01.246Z,101897.63
2018-10-12T09:29:29.788Z,101894.36
2018-10-12T09:31:58.311Z,101892.43
2018-10-12T09:34:26.875Z,101897.33
2018-10-12T09:36:55.433Z,101903.80
2018-10-12T09:39:23.962Z,101899.20
2018-10-12T09:41:52.493Z,101904.92
2018-10-12T09:44:21.029Z,101897.04
2018-10-12T09:46:50.074Z,101904.44
2018-10-12T09:49:18.633Z,101917.45
2018-10-12T09:51:47.161Z,101923.38
2018-10-12T09:54:15.711Z,101919.24
2018-10-12T09:56:48.365Z,101931.55
2018-10-12T09:59:16.914Z,101930.34
2018-10-12T10:01:50.810Z,101934.94
2018-10-12T10:04:23.434Z,101937.77
2018-10-12T10:06:51.962Z,101940.84
2018-10-12T10:09:20.500Z,101944.91
2018-10-12T10:11:49.400Z,101941.13
2018-10-12T10:14:17.589Z,101944.10
2018-10-12T10:16:46.129Z,101951.23
2018-10-12T10:19:14.858Z,101947.28
2018-10-12T10:21:43.417Z,101945.70
2018-10-12T10:24:11.959Z,101951.95
2018-10-12T10:26:40.499Z,101945.36
2018-10-12T10:29:09.091Z,101945.99
2018-10-12T10:31:37.681Z,101938.75
2018-10-12T10:34:06.246Z,101937.27
2018-10-12T10:36:34.812Z,101939.53
2018-10-12T10:39:03.852Z,101941.52
2018-10-12T10:41:32.387Z,101935.68
2018-10-12T10:44:00.903Z,101933.58
2018-10-12T10:46:29.594Z,101923.30
2018-10-12T10:48:58.067Z,101926.00
2018-10-12T10:51:26.632Z,101925.78
2018-10-12T10:53:55.158Z,101922.58
2018-10-12T10:56:23.710Z,101916.61
2018-10-12T10:58:52.213Z,101916.39
2018-10-12T11:01:20.761Z,101912.33
2018-10-12T11:03:49.274Z,101911.09
2018-10-12T11:06:17.864Z,101904.37
2018-10-12T11:08:46.349Z,101903.38
2018-10-12T11:11:14.955Z,101910.79
2018-10-12T11:13:43.474Z,101910.89
2018-10-12T11:16:11.983Z,101902.25
2018-10-12T11:18:40.524Z,101903.33
2018-10-12T11:21:09.042Z,101900.59
2018-10-12T11:23:37.553Z,101898.96
2018-10-12T11:26:06.105Z,101896.55
2018-10-12T11:28:34.646Z,101895.07
2018-10-12T11:31:03.146Z,101892.84
2018-10-12T11:33:31.976Z,101892.41
2018-10-12T11:36:00.264Z,101895.61
2018-10-12T11:38:28.808Z,101889.23
2018-10-12T11:40:57.331Z,101892.14
2018-10-12T11:43:31.140Z,101893.41
2018-10-12T11:46:00.615Z,101895.33
2018-10-12T11:48:29.173Z,101886.69
2018-10-12T11:50:58.028Z,101887.13
2018-10-12T11:53:26.578Z,101886.33
2018-10-12T11:55:55.145Z,101890.76
2018-10-12T11:58:24.058Z,101887.48
2018-10-12T12:00:52.646Z,101893.77
2018-10-12T12:03:21.228Z,101892.45
2018-10-12T12:05:49.740Z,101889.52
2018-10-12T12:08:18.240Z,101887.03
2018-10-12T12:10:46.786Z,101883.47
2018-10-12T12:13:15.316Z,101876.53
2018-10-12T12:15:43.866Z,101878.88
2018-10-12T12:18:12.416Z,101881.67
2018-10-12T12:20:40.946Z,101885.23
2018-10-12T12:23:09.455Z,101890.84
2018-10-12T12:25:38.002Z,101895.84
2018-10-12T12:28:06.656Z,101898.31
2018-10-12T12:30:35.183Z,101902.50
2018-10-12T12:33:03.700Z,101900.33
2018-10-12T12:35:32.561Z,101909.02
2018-10-12T12:38:00.786Z,101907.31
2018-10-12T12:40:29.330Z,101910.41
2018-10-12T12:42:57.843Z,101911.27
2018-10-12T12:45:26.368Z,101905.97
2018-10-12T12:47:55.055Z,101909.62
2018-10-12T12:50:23.456Z,101910.47
2018-10-12T12:52:51.977Z,101902.66
2018-10-12T12:55:20.611Z,101908.60
2018-10-12T12:57:49.120Z,101908.60
2018-10-12T13:00:17.725Z,101900.50
2018-10-12T13:02:46.188Z,101900.78
2018-10-12T13:05:14.710Z,101902.71
2018-10-12T13:07:43.229Z,101893.16
2018-10-12T13:10:11.741Z,101897.38
2018-10-12T13:12:40.245Z,101897.13
2018-10-12T13:15:08.797Z,101894.98
2018-10-12T13:17:37.286Z,101893.36
2018-10-12T13:20:05.853Z,101893.94
2018-10-12T13:22:34.378Z,101890.56
2018-10-12T13:25:02.903Z,101898.12
2018-10-12T13:27:31.417Z,101887.81
2018-10-12T13:29:59.964Z,101895.08
2018-10-12T13:32:28.489Z,101893.63
2018-10-12T13:34:57.058Z,101892.81
2018-10-12T13:37:25.645Z,101895.00
2018-10-12T13:39:54.208Z,101899.64
2018-10-12T13:42:22.752Z,101902.38
2018-10-12T13:44:51.298Z,101900.78
2018-10-12T13:47:19.973Z,101899.72
2018-10-12T13:49:48.534Z,101905.28
2018-10-12T13:52:17.042Z,101911.98
2018-10-12T13:54:45.566Z,101916.16
2018-10-12T13:57:14.077Z,101909.19
2018-10-12T13:59:42.604Z,101908.88
2018-10-12T14:02:11.113Z,101909.72
2018-10-12T14:04:39.633Z,101915.21
2018-10-12T14:07:08.128Z,101909.97
2018-10-12T14:09:36.661Z,101907.48
2018-10-12T14:12:05.181Z,101910.55
2018-10-12T14:14:33.702Z,101909.13
2018-10-12T14:17:02.218Z,101902.38
2018-10-12T14:19:30.813Z,101906.28
2018-10-12T14:21:59.283Z,101899.55
2018-10-12T14:24:27.781Z,101896.17
2018-10-12T14:26:56.364Z,101896.45
2018-10-12T14:29:24.832Z,101894.23
2018-10-12T14:31:53.362Z,101888.64
2018-10-12T14:34:21.883Z,101896.45
2018-10-12T14:36:50.417Z,101906.78
2018-10-12T14:39:18.913Z,101904.55
2018-10-12T14:41:47.441Z,101900.08
2018-10-12T14:44:16.135Z,101898.41
2018-10-12T14:46:44.511Z,101900.86
2018-10-12T14:49:13.016Z,101900.58
2018-10-12T14:51:41.586Z,101908.61
2018-10-12T14:54:10.089Z,101905.52
2018-10-12T14:56:38.704Z,101907.46
2018-10-12T14:59:07.260Z,101904.67
2018-10-12T15:01:35.812Z,101904.39
2018-10-12T15:04:04.553Z,101910.95
2018-10-12T15:06:33.102Z,101921.76
2018-10-12T15:09:01.629Z,101923.91
2018-10-12T15:11:30.203Z,101923.56
2018-10-12T15:13:58.712Z,101918.75
2018-10-12T15:16:27.250Z,101918.94
2018-10-12T15:18:55.793Z,101931.93
2018-10-12T15:21:24.557Z,101930.45
2018-10-12T15:23:52.870Z,101931.19
2018-10-12T15:26:21.394Z,101935.78
2018-10-12T15:28:49.944Z,101935.09
2018-10-12T15:31:18.479Z,101937.16
2018-10-12T15:33:46.992Z,101943.38
2018-10-12T15:36:15.531Z,101951.79
2018-10-12T15:38:44.094Z,101956.03
2018-10-12T15:41:12.777Z,101958.87
2018-10-12T15:43:41.304Z,101965.34
2018-10-12T15:46:09.863Z,101969.22
2018-10-12T15:48:38.398Z,101972.91
2018-10-12T15:51:07.000Z,101971.01
2018-10-12T15:53:35.480Z,101964.12
2018-10-12T15:56:04.043Z,101969.59
2018-10-12T15:58:32.563Z,101965.56
2018-10-12T16:01:01.111Z,101957.11
2018-10-12T16:03:29.634Z,101966.75
2018-10-12T16:05:58.190Z,101971.25
2018-10-12T16:08:26.700Z,101969.99
2018-10-12T16:10:55.258Z,101973.91
2018-10-12T16:13:23.816Z,101975.45
2018-10-12T16:15:52.340Z,101982.38
2018-10-12T16:18:20.863Z,101977.06
2018-10-12T16:20:49.376Z,101979.16
2018-10-12T16:23:17.924Z,101979.23
2018-10-12T16:25:58.942Z,101988.55
2018-10-12T16:28:27.475Z,101988.99
2018-10-12T16:30:56.525Z,101992.45
2018-10-12T16:33:25.188Z,101998.80
2018-10-12T16:35:55.112Z,102002.41
2018-10-12T16:38:23.665Z,101998.02
2018-10-12T16:40:52.187Z,102004.32
2018-10-12T16:43:20.750Z,102015.20
2018-10-12T16:45:50.379Z,102017.34
2018-10-12T16:48:18.946Z,102017.98
2018-10-12T16:50:47.455Z,102024.83
2018-10-12T16:53:16.056Z,102022.70
2018-10-12T16:55:44.575Z,102024.22
2018-10-12T16:58:14.178Z,102020.60
2018-10-12T17:00:42.921Z,102028.17
2018-10-12T17:03:11.570Z,102024.72
2018-10-12T17:05:40.100Z,102025.20
2018-10-12T17:08:08.638Z,102023.84
2018-10-12T17:10:37.280Z,102026.92
2018-10-12T17:13:05.930Z,102026.06
2018-10-12T17:15:34.447Z,102033.84
2018-10-12T17:18:02.993Z,102038.66
2018-10-12T17:20:31.501Z,102031.88
2018-10-12T17:23:00.054Z,102030.92
2018-10-12T17:25:28.574Z,102038.44
2018-10-12T17:27:57.105Z,102034.64
2018-10-12T17:30:25.788Z,102038.05
2018-10-12T17:32:54.320Z,102038.78
2018-10-12T17:35:22.864Z,102043.48
2018-10-12T17:37:51.400Z,102043.98
2018-10-12T17:40:19.891Z,102039.45
2018-10-12T17:42:48.429Z,102046.87
2018-10-12T17:45:16.962Z,102040.37
2018-10-12T17:47:45.522Z,102044.70
2018-10-12T17:50:14.030Z,102054.23
2018-10-12T17:52:42.568Z,102048.00
2018-10-12T17:55:11.077Z,102045.68
2018-10-12T17:57:39.625Z,102052.35
2018-10-12T18:00:09.329Z,102046.00
2018-10-12T18:02:38.019Z,102048.51
2018-10-12T18:05:06.900Z,102046.38
2018-10-12T18:07:35.453Z,102047.20
2018-10-12T18:10:04.059Z,102047.95
2018-10-12T18:12:32.588Z,102050.58
2018-10-12T18:15:01.103Z,102052.67
2018-10-12T18:17:29.643Z,102053.98
2018-10-12T18:19:58.146Z,102055.62
2018-10-12T18:22:26.694Z,102057.84
2018-10-12T18:24:55.201Z,102050.70
2018-10-12T18:27:23.703Z,102054.88
2018-10-12T18:29:52.240Z,102056.06
2018-10-12T18:32:20.737Z,102052.78
2018-10-12T18:34:49.298Z,102054.23
2018-10-12T18:37:17.814Z,102056.46
2018-10-12T18:39:46.347Z,102057.05
2018-10-12T18:42:14.853Z,102054.38
2018-10-12T18:44:43.403Z,102059.21
2018-10-12T18:47:11.925Z,102057.07
2018-10-12T18:49:40.461Z,102060.19
2018-10-12T18:52:09.281Z,102061.56
2018-10-12T18:54:37.807Z,102063.65
2018-10-12T18:57:06.319Z,102071.38
2018-10-12T18:59:34.862Z,102063.97
2018-10-12T19:02:03.397Z,102062.98
2018-10-12T19:04:32.389Z,102067.10
2018-10-12T19:07:00.865Z,102071.47
2018-10-12T19:09:29.405Z,102069.17
2018-10-12T19:11:57.927Z,102064.22
2018-10-12T19:14:26.494Z,102069.39
2018-10-12T19:16:55.082Z,102063.75
2018-10-12T19:19:23.676Z,102066.77
2018-10-12T19:21:52.210Z,102064.66
2018-10-12T19:24:20.766Z,102064.13
2018-10-12T19:26:49.276Z,102066.77
2018-10-12T19:29:17.807Z,102065.95
2018-10-12T19:31:46.329Z,102069.11
2018-10-12T19:34:14.930Z,102068.56
2018-10-12T19:36:43.451Z,102072.62
2018-10-12T19:39:11.977Z,102068.09
2018-10-12T19:41:40.487Z,102075.19
2018-10-12T19:44:09.736Z,102073.08
2018-10-12T19:46:38.252Z,102070.02
2018-10-12T19:49:06.785Z,102076.03
2018-10-12T19:51:35.300Z,102073.89
2018-10-12T19:54:03.867Z,102072.89
2018-10-12T19:56:32.378Z,102071.57
2018-10-12T19:59:00.938Z,102080.90
2018-10-12T20:01:29.463Z,102080.11
2018-10-12T20:03:58.010Z,102088.50
2018-10-12T20:06:26.526Z,102089.60
2018-10-12T20:08:55.058Z,102079.70
2018-10-12T20:11:23.574Z,102086.60
2018-10-12T20:13:52.104Z,102099.14
2018-10-12T20:16:20.614Z,102094.59
2018-10-12T20:18:49.164Z,102098.55
2018-10-12T20:21:17.750Z,102099.03
2018-10-12T20:23:46.294Z,102096.33
2018-10-12T20:26:14.818Z,102096.70
2018-10-12T20:28:43.355Z,102093.16
2018-10-12T20:31:11.926Z,102093.00
2018-10-12T20:33:40.438Z,102098.72
2018-10-12T20:36:08.973Z,102093.77
2018-10-12T20:38:37.569Z,102086.97
2018-10-12T20:41:06.139Z,102092.77
2018-10-12T20:43:34.679Z,102090.67
2018-10-12T20:46:03.224Z,102090.45
2018-10-12T20:48:31.766Z,102089.62
2018-10-12T20:51:00.278Z,102083.86
2018-10-12T20:53:28.816Z,102087.97
2018-10-12T20:55:57.366Z,102084.55
2018-10-12T20:58:25.908Z,102087.20
2018-10-12T21:00:54.429Z,102084.47
2018-10-12T21:03:22.976Z,102079.03
2018-10-12T21:05:51.495Z,102077.70
2018-10-12T21:08:20.010Z,102079.11
2018-10-12T21:10:48.564Z,102082.21
2018-10-12T21:13:17.068Z,102081.59
2018-10-12T21:15:45.589Z,102086.55
2018-10-12T21:18:14.144Z,102086.11
2018-10-12T21:20:42.675Z,102082.78
2018-10-12T21:23:11.174Z,102088.28
2018-10-12T21:25:39.681Z,102090.04
2018-10-12T21:28:08.223Z,102088.86
2018-10-12T21:30:36.764Z,102089.73
2018-10-12T21:33:05.267Z,102085.47
2018-10-12T21:35:33.809Z,102080.38
2018-10-12T21:38:02.344Z,102080.55
2018-10-12T21:40:30.906Z,102079.72
2018-10-12T21:42:59.423Z,102080.10
2018-10-12T21:45:27.966Z,102084.39
2018-10-12T21:47:56.692Z,102087.86
2018-10-12T21:50:25.275Z,102085.80
2018-10-12T21:52:53.796Z,102093.19
2018-10-12T21:55:22.332Z,102090.45
2018-10-12T21:57:50.838Z,102094.36
2018-10-12T22:00:19.396Z,102090.13
2018-10-12T22:02:47.910Z,102095.59
2018-10-12T22:05:16.447Z,102092.02
2018-10-12T22:07:44.964Z,102092.84
2018-10-12T22:10:13.510Z,102105.67
2018-10-12T22:12:42.096Z,102102.11
2018-10-12T22:15:10.636Z,102102.66
2018-10-12T22:17:39.140Z,102095.14
2018-10-12T22:20:07.709Z,102094.09
2018-10-12T22:22:36.223Z,102090.87
2018-10-12T22:25:04.818Z,102092.92
2018-10-12T22:27:33.328Z,102090.53
2018-10-12T22:30:01.867Z,102091.90
2018-10-12T22:32:30.399Z,102090.38
2018-10-12T22:34:58.972Z,102087.63
2018-10-12T22:37:27.515Z,102082.31
2018-10-12T22:39:56.079Z,102088.80
2018-10-12T22:42:24.589Z,102087.95
2018-10-12T22:44:53.134Z,102091.74
2018-10-12T22:47:21.649Z,102088.01
2018-10-12T22:49:50.306Z,102084.95
2018-10-12T22:52:18.838Z,102078.47
2018-10-12T22:54:47.376Z,102078.30
2018-10-12T22:57:15.917Z,102082.57
2018-10-12T22:59:44.462Z,102076.06
2018-10-12T23:02:12.989Z,102071.97
2018-10-12T23:04:41.511Z,102076.27
2018-10-12T23:07:10.056Z,102069.12
2018-10-12T23:09:38.568Z,102067.73
2018-10-12T23:12:07.118Z,102078.02
2018-10-12T23:14:35.626Z,102075.95
2018-10-12T23:17:04.178Z,102075.79
2018-10-12T23:19:32.690Z,102073.05
2018-10-12T23:22:01.251Z,102073.55
2018-10-12T23:24:29.778Z,102079.16
2018-10-12T23:26:58.365Z,102077.52
2018-10-12T23:29:26.941Z,102078.84
2018-10-12T23:31:55.477Z,102082.09
2018-10-12T23:34:24.018Z,102085.52
2018-10-12T23:36:52.577Z,102087.03
2018-10-12T23:39:21.095Z,102089.77
2018-10-12T23:41:49.636Z,102083.46
2018-10-12T23:44:18.145Z,102094.04
2018-10-12T23:46:46.685Z,102086.54
2018-10-12T23:49:15.215Z,102086.56
2018-10-12T23:51:43.751Z,102082.92
2018-10-12T23:54:12.269Z,102089.42
2018-10-12T23:56:40.822Z,102086.87
2018-10-12T23:59:09.342Z,102084.48
